createdAt,value
2023-11-07T00:03:50.506Z,12.25
2023-11-07T00:13:53.588Z,14.30
2023-11-07T00:23:57.911Z,11.98
2023-11-07T00:34:01.252Z,8.70
2023-11-07T00:44:06.400Z,8.90
2023-11-07T00:54:11.438Z,14.40
2023-11-07T01:04:15.969Z,13.43
2023-11-07T01:14:19.008Z,16.42
2023-11-07T01:24:23.323Z,7.80
2023-11-07T01:34:26.553Z,15.82
2023-11-07T01:44:31.527Z,17.83
2023-11-07T02:04:39.076Z,17.60
2023-11-07T02:24:46.789Z,10.38
2023-11-07T02:34:50.032Z,14.50
2023-11-07T02:44:54.386Z,11.32
2023-11-07T02:54:57.334Z,14.37
2023-11-07T03:05:01.687Z,19.95
2023-11-07T03:15:05.057Z,17.27
2023-11-07T03:25:10.366Z,19.60
2023-11-07T03:35:14.348Z,18.00
2023-11-07T03:45:18.708Z,22.33
2023-11-07T03:55:21.724Z,21.00
2023-11-07T04:05:26.115Z,19.48
2023-11-07T04:15:29.095Z,15.97
2023-11-07T04:25:33.391Z,13.82
2023-11-07T04:35:36.352Z,19.33
2023-11-07T04:45:41.232Z,22.33
2023-11-07T05:05:50.206Z,16.95
2023-11-07T05:15:54.796Z,15.90
2023-11-07T05:25:59.274Z,24.02
2023-11-07T05:36:02.169Z,24.45
2023-11-07T05:46:07.353Z,22.85
2023-11-07T05:56:10.959Z,20.50
2023-11-07T06:06:15.283Z,32.75
2023-11-07T06:16:18.431Z,25.00
2023-11-07T06:26:22.743Z,28.10
2023-11-07T06:36:25.936Z,18.80
2023-11-07T06:46:30.245Z,16.38
2023-11-07T06:56:33.460Z,16.93
2023-11-07T07:06:37.815Z,15.32
2023-11-07T07:16:40.757Z,25.27
2023-11-07T07:26:46.619Z,17.58
2023-11-07T07:36:51.759Z,16.13
2023-11-07T07:46:58.240Z,15.23
2023-11-07T07:57:01.315Z,17.67
2023-11-07T08:07:06.302Z,18.45
2023-11-07T08:17:10.830Z,14.82
2023-11-07T08:27:15.302Z,17.85
2023-11-07T08:37:18.412Z,16.00
2023-11-07T08:47:25.289Z,18.77
2023-11-07T08:57:33.840Z,14.27
2023-11-07T09:07:44.638Z,8.43
2023-11-07T09:17:50.713Z,8.15
2023-11-07T09:28:00.911Z,10.80
2023-11-07T09:38:06.832Z,9.98
2023-11-07T09:48:22.845Z,4.07
2023-11-07T09:58:28.723Z,6.40
2023-11-07T10:08:33.506Z,5.47
2023-11-07T10:29:06.100Z,8.07
2023-11-07T10:39:17.974Z,5.70
2023-11-07T10:49:23.674Z,8.30
2023-11-07T10:59:29.557Z,5.75
2023-11-07T11:09:36.466Z,6.82
2023-11-07T11:19:55.251Z,11.20
2023-11-07T11:30:00.164Z,5.07
2023-11-07T11:40:04.327Z,5.13
2023-11-07T11:50:19.240Z,5.20
2023-11-07T12:00:23.496Z,6.60
2023-11-07T12:10:28.859Z,6.53
2023-11-07T12:20:33.763Z,4.85
2023-11-07T12:30:38.495Z,7.03
2023-11-07T12:40:52.443Z,5.28
2023-11-07T12:50:57.429Z,6.43
2023-11-07T13:01:02.447Z,5.72
2023-11-07T13:11:11.175Z,5.95
2023-11-07T13:21:14.415Z,4.38
2023-11-07T13:31:20.404Z,6.28
2023-11-07T13:41:26.460Z,7.80
2023-11-07T13:51:39.882Z,6.30
2023-11-07T14:01:44.170Z,4.20
2023-11-07T14:11:50.230Z,8.00
2023-11-07T14:22:02.228Z,7.85
2023-11-07T14:32:10.118Z,4.43
2023-11-07T14:42:18.992Z,5.40
2023-11-07T14:52:29.159Z,5.90
2023-11-07T15:02:32.378Z,3.97
2023-11-07T15:12:40.264Z,2.78
2023-11-07T15:22:47.168Z,5.10
2023-11-07T15:33:01.026Z,5.22
2023-11-07T15:43:06.478Z,6.77
2023-11-07T15:53:15.407Z,5.85
2023-11-07T16:03:19.736Z,8.95
2023-11-07T16:13:24.251Z,7.38
2023-11-07T16:23:27.285Z,7.15
2023-11-07T16:33:31.736Z,4.10
2023-11-07T16:43:34.858Z,5.10
2023-11-07T16:53:40.075Z,4.20
2023-11-07T17:03:43.183Z,4.82
2023-11-07T17:13:47.562Z,12.70
2023-11-07T17:23:51.779Z,3.97
2023-11-07T17:33:56.129Z,4.73
2023-11-07T17:43:59.369Z,11.85
2023-11-07T17:54:03.713Z,7.57
2023-11-07T18:04:07.289Z,2.07
2023-11-07T18:14:12.855Z,5.13
2023-11-07T18:24:15.924Z,4.03
2023-11-07T18:34:23.473Z,4.15
2023-11-07T18:44:31.616Z,3.67
2023-11-07T18:54:36.377Z,4.20
2023-11-07T19:04:40.636Z,6.43
2023-11-07T19:14:45.468Z,7.10
2023-11-07T19:34:52.983Z,6.78
2023-11-07T19:44:56.626Z,8.95
2023-11-07T19:55:00.955Z,7.07
2023-11-07T20:05:04.304Z,7.80
2023-11-07T20:15:09.848Z,7.03
2023-11-07T20:25:12.991Z,4.40
2023-11-07T20:35:17.410Z,8.50
2023-11-07T20:45:20.656Z,10.85
2023-11-07T20:55:26.835Z,8.40
2023-11-07T21:05:29.836Z,8.32
2023-11-07T21:15:34.528Z,6.82
2023-11-07T21:25:37.423Z,10.27
2023-11-07T21:35:42.196Z,7.05
2023-11-07T21:55:51.973Z,10.85
2023-11-07T22:05:54.975Z,5.68
2023-11-07T22:15:59.280Z,13.93
2023-11-07T22:26:02.283Z,9.27
2023-11-07T22:36:07.213Z,7.85
2023-11-07T22:46:10.312Z,7.93
2023-11-07T22:56:14.916Z,7.78
2023-11-07T23:06:18.120Z,6.90
2023-11-07T23:16:23.198Z,4.10
2023-11-07T23:26:31.135Z,8.60
2023-11-07T23:36:42.534Z,7.90
2023-11-07T23:46:46.082Z,6.90
2023-11-07T23:56:50.456Z,12.13
